Etusivu
METAR-TAF:

METAR-TAF

Lentoasemat :

Draughon-Miller Central Texas Regional Airport

Temple, Texas, Yhdysvallat

Leveyspiiri: 31-09N, Pituuspiiri: 097-24W, korkeus merenpinnasta: 208 m

Tämänhetkinen sää

Tämä raportti tehtiin 1 tunti ja 8 minuuttia sitten, kello 15.51 UTC
Tuuli 3 kn pohjoisesta
Lämpötila 12°C
Kosteus 62%
Ilmanpaine 1028 hPa
Näkyvyys: 16.1 km
selkeää

METAR: KTPL 301551Z AUTO 36003KT 10SM CLR 12/05 A3036 RMK AO2 SLP276 T01220050

Aika: 11:59 (16:59 UTC)


TAF: puuttuu

Säähavainnot ja -ennusteet yli 4000 lentoasemalta (METAR- ja TAF-raportit).

Käytössä olevat sääasemat on merkitty karttaan keltaisilla ja punaisilla pisteillä.

Aseta hiiri pisteen päälle nähdäksesi sääaseman nimen.

Klikkaa sitten nähdäksesi säähavainnot ja -ennusteet.

Kartan vaihtaminen: klikkaa mustalla rastilla varustettuja vihreitä pisteitä, niin voit zoomata sisään; viivalla varustettua vihreää pistettä, niin voit zoomata ulos tai vihreitä nuolia, niin pääset viereisille kartoille.


METAR-TAF: